sensor_id;sensor_type;location;lat;lon;timestamp;temperature;humidity
7317;DHT22;3699;51.462;6.696;2023-08-08T00:01:45;15.30;99.90
7317;DHT22;3699;51.462;6.696;2023-08-08T00:04:11;15.20;99.90
7317;DHT22;3699;51.462;6.696;2023-08-08T00:06:39;15.20;99.90
7317;DHT22;3699;51.462;6.696;2023-08-08T00:09:06;15.20;99.90
7317;DHT22;3699;51.462;6.696;2023-08-08T00:11:33;15.20;99.90
7317;DHT22;3699;51.462;6.696;2023-08-08T00:14:00;15.10;99.90
7317;DHT22;3699;51.462;6.696;2023-08-08T00:16:27;15.00;99.90
7317;DHT22;3699;51.462;6.696;2023-08-08T00:18:54;15.10;99.90
7317;DHT22;3699;51.462;6.696;2023-08-08T00:21:21;15.00;99.90
7317;DHT22;3699;51.462;6.696;2023-08-08T00:23:49;15.00;99.90
7317;DHT22;3699;51.462;6.696;2023-08-08T00:26:16;15.00;99.90
7317;DHT22;3699;51.462;6.696;2023-08-08T00:28:42;14.90;99.90
7317;DHT22;3699;51.462;6.696;2023-08-08T00:31:09;14.90;99.90
7317;DHT22;3699;51.462;6.696;2023-08-08T00:33:36;14.90;99.90
7317;DHT22;3699;51.462;6.696;2023-08-08T00:36:03;14.90;99.90
7317;DHT22;3699;51.462;6.696;2023-08-08T00:38:29;14.90;99.90
7317;DHT22;3699;51.462;6.696;2023-08-08T00:40:57;14.90;99.90
7317;DHT22;3699;51.462;6.696;2023-08-08T00:43:24;14.90;99.90
7317;DHT22;3699;51.462;6.696;2023-08-08T00:45:51;15.00;99.90
7317;DHT22;3699;51.462;6.696;2023-08-08T00:48:18;14.90;99.90
7317;DHT22;3699;51.462;6.696;2023-08-08T00:50:45;15.00;99.90
7317;DHT22;3699;51.462;6.696;2023-08-08T00:53:15;15.00;99.90
7317;DHT22;3699;51.462;6.696;2023-08-08T00:55:42;15.00;99.90
7317;DHT22;3699;51.462;6.696;2023-08-08T00:58:15;15.00;99.90
7317;DHT22;3699;51.462;6.696;2023-08-08T01:00:42;15.00;99.90
7317;DHT22;3699;51.462;6.696;2023-08-08T01:03:09;15.00;99.90
7317;DHT22;3699;51.462;6.696;2023-08-08T01:05:42;15.00;99.90
7317;DHT22;3699;51.462;6.696;2023-08-08T01:08:12;15.00;99.90
7317;DHT22;3699;51.462;6.696;2023-08-08T01:10:43;15.00;99.90
7317;DHT22;3699;51.462;6.696;2023-08-08T01:13:13;15.00;99.90
7317;DHT22;3699;51.462;6.696;2023-08-08T01:15:42;15.00;99.90
7317;DHT22;3699;51.462;6.696;2023-08-08T01:18:09;15.00;99.90
7317;DHT22;3699;51.462;6.696;2023-08-08T01:20:37;14.90;99.90
7317;DHT22;3699;51.462;6.696;2023-08-08T01:23:11;14.90;99.90
7317;DHT22;3699;51.462;6.696;2023-08-08T01:25:41;14.90;99.90
7317;DHT22;3699;51.462;6.696;2023-08-08T01:28:08;14.80;99.90
7317;DHT22;3699;51.462;6.696;2023-08-08T01:30:35;14.80;99.90
7317;DHT22;3699;51.462;6.696;2023-08-08T01:33:03;14.80;99.90
7317;DHT22;3699;51.462;6.696;2023-08-08T01:35:32;14.70;99.90
7317;DHT22;3699;51.462;6.696;2023-08-08T01:38:06;14.70;99.90
7317;DHT22;3699;51.462;6.696;2023-08-08T01:40:35;14.70;99.90
7317;DHT22;3699;51.462;6.696;2023-08-08T01:43:04;14.70;99.90
7317;DHT22;3699;51.462;6.696;2023-08-08T01:45:32;14.70;99.90
7317;DHT22;3699;51.462;6.696;2023-08-08T01:47:59;14.80;99.90
7317;DHT22;3699;51.462;6.696;2023-08-08T01:50:25;14.80;99.90
7317;DHT22;3699;51.462;6.696;2023-08-08T01:52:53;14.80;99.90
7317;DHT22;3699;51.462;6.696;2023-08-08T01:55:20;14.80;99.90
7317;DHT22;3699;51.462;6.696;2023-08-08T01:57:46;14.80;99.90
7317;DHT22;3699;51.462;6.696;2023-08-08T02:00:15;14.90;99.90
7317;DHT22;3699;51.462;6.696;2023-08-08T02:02:41;14.90;99.90
7317;DHT22;3699;51.462;6.696;2023-08-08T02:05:08;14.80;99.90
7317;DHT22;3699;51.462;6.696;2023-08-08T02:07:35;14.80;99.90
7317;DHT22;3699;51.462;6.696;2023-08-08T02:10:02;14.80;99.90
7317;DHT22;3699;51.462;6.696;2023-08-08T02:12:29;14.80;99.90
7317;DHT22;3699;51.462;6.696;2023-08-08T02:14:55;14.80;99.90
7317;DHT22;3699;51.462;6.696;2023-08-08T02:17:24;14.70;99.90
7317;DHT22;3699;51.462;6.696;2023-08-08T02:19:54;14.80;99.90
7317;DHT22;3699;51.462;6.696;2023-08-08T02:22:22;14.80;99.90
7317;DHT22;3699;51.462;6.696;2023-08-08T02:24:49;14.80;99.90
7317;DHT22;3699;51.462;6.696;2023-08-08T02:27:15;14.80;99.90
7317;DHT22;3699;51.462;6.696;2023-08-08T02:29:42;14.80;99.90
7317;DHT22;3699;51.462;6.696;2023-08-08T02:32:09;14.80;99.90
7317;DHT22;3699;51.462;6.696;2023-08-08T02:34:37;14.90;99.90
7317;DHT22;3699;51.462;6.696;2023-08-08T02:37:04;14.90;99.90
7317;DHT22;3699;51.462;6.696;2023-08-08T02:39:31;14.90;99.90
7317;DHT22;3699;51.462;6.696;2023-08-08T02:41:57;14.90;99.90
7317;DHT22;3699;51.462;6.696;2023-08-08T02:44:24;14.90;99.90
7317;DHT22;3699;51.462;6.696;2023-08-08T02:46:51;14.90;99.90
7317;DHT22;3699;51.462;6.696;2023-08-08T02:49:17;15.00;99.90
7317;DHT22;3699;51.462;6.696;2023-08-08T02:51:46;15.00;99.90
7317;DHT22;3699;51.462;6.696;2023-08-08T02:54:12;15.00;99.90
7317;DHT22;3699;51.462;6.696;2023-08-08T02:56:39;15.00;99.90
7317;DHT22;3699;51.462;6.696;2023-08-08T02:59:06;15.00;99.90
7317;DHT22;3699;51.462;6.696;2023-08-08T03:01:32;15.00;99.90
7317;DHT22;3699;51.462;6.696;2023-08-08T03:04:03;15.00;99.90
7317;DHT22;3699;51.462;6.696;2023-08-08T03:06:30;15.00;99.90
7317;DHT22;3699;51.462;6.696;2023-08-08T03:08:58;15.00;99.90
7317;DHT22;3699;51.462;6.696;2023-08-08T03:11:25;15.00;99.90
7317;DHT22;3699;51.462;6.696;2023-08-08T03:13:51;15.00;99.90
7317;DHT22;3699;51.462;6.696;2023-08-08T03:16:18;15.00;99.90
7317;DHT22;3699;51.462;6.696;2023-08-08T03:18:45;15.00;99.90
7317;DHT22;3699;51.462;6.696;2023-08-08T03:21:11;14.90;99.90
7317;DHT22;3699;51.462;6.696;2023-08-08T03:23:38;14.90;99.90
7317;DHT22;3699;51.462;6.696;2023-08-08T03:26:06;14.90;99.90
7317;DHT22;3699;51.462;6.696;2023-08-08T03:28:33;14.80;99.90
7317;DHT22;3699;51.462;6.696;2023-08-08T03:31:00;14.80;99.90
7317;DHT22;3699;51.462;6.696;2023-08-08T03:33:28;14.80;99.90
7317;DHT22;3699;51.462;6.696;2023-08-08T03:35:55;14.80;99.90
7317;DHT22;3699;51.462;6.696;2023-08-08T03:38:22;14.70;99.90
7317;DHT22;3699;51.462;6.696;2023-08-08T03:40:48;14.70;99.90
7317;DHT22;3699;51.462;6.696;2023-08-08T03:43:16;14.70;99.90
7317;DHT22;3699;51.462;6.696;2023-08-08T03:45:44;14.70;99.90
7317;DHT22;3699;51.462;6.696;2023-08-08T03:48:12;14.60;99.90
7317;DHT22;3699;51.462;6.696;2023-08-08T03:50:38;14.60;99.90
7317;DHT22;3699;51.462;6.696;2023-08-08T03:53:05;14.60;99.90
7317;DHT22;3699;51.462;6.696;2023-08-08T03:55:32;14.60;99.90
7317;DHT22;3699;51.462;6.696;2023-08-08T03:57:59;14.60;99.90
7317;DHT22;3699;51.462;6.696;2023-08-08T04:00:27;14.50;99.90
7317;DHT22;3699;51.462;6.696;2023-08-08T04:02:53;14.50;99.90
7317;DHT22;3699;51.462;6.696;2023-08-08T04:05:20;14.50;99.90
7317;DHT22;3699;51.462;6.696;2023-08-08T04:07:47;14.50;99.90
7317;DHT22;3699;51.462;6.696;2023-08-08T04:10:14;14.50;99.90
7317;DHT22;3699;51.462;6.696;2023-08-08T04:12:40;14.50;99.90
7317;DHT22;3699;51.462;6.696;2023-08-08T04:15:14;14.50;99.90
7317;DHT22;3699;51.462;6.696;2023-08-08T04:17:42;14.50;99.90
7317;DHT22;3699;51.462;6.696;2023-08-08T04:20:10;14.50;99.90
7317;DHT22;3699;51.462;6.696;2023-08-08T04:22:37;14.50;99.90
7317;DHT22;3699;51.462;6.696;2023-08-08T04:25:04;14.50;99.90
7317;DHT22;3699;51.462;6.696;2023-08-08T04:27:31;14.50;99.90
7317;DHT22;3699;51.462;6.696;2023-08-08T04:29:58;14.50;99.90
7317;DHT22;3699;51.462;6.696;2023-08-08T04:32:25;14.50;99.90
7317;DHT22;3699;51.462;6.696;2023-08-08T04:34:53;14.60;99.90
7317;DHT22;3699;51.462;6.696;2023-08-08T04:37:20;14.60;99.90
7317;DHT22;3699;51.462;6.696;2023-08-08T04:39:47;14.60;99.90
7317;DHT22;3699;51.462;6.696;2023-08-08T04:42:13;14.60;99.90
7317;DHT22;3699;51.462;6.696;2023-08-08T04:44:40;14.60;99.90
7317;DHT22;3699;51.462;6.696;2023-08-08T04:47:07;14.60;99.90
7317;DHT22;3699;51.462;6.696;2023-08-08T04:49:33;14.60;99.90
7317;DHT22;3699;51.462;6.696;2023-08-08T04:52:02;14.60;99.90
7317;DHT22;3699;51.462;6.696;2023-08-08T04:54:29;14.70;99.90
7317;DHT22;3699;51.462;6.696;2023-08-08T04:56:56;14.70;99.90
7317;DHT22;3699;51.462;6.696;2023-08-08T04:59:23;14.70;99.90
7317;DHT22;3699;51.462;6.696;2023-08-08T05:01:50;14.70;99.90
7317;DHT22;3699;51.462;6.696;2023-08-08T05:04:17;14.70;99.90
7317;DHT22;3699;51.462;6.696;2023-08-08T05:06:44;14.80;99.90
7317;DHT22;3699;51.462;6.696;2023-08-08T05:09:13;14.80;99.90
7317;DHT22;3699;51.462;6.696;2023-08-08T05:11:41;14.80;99.90
7317;DHT22;3699;51.462;6.696;2023-08-08T05:14:08;14.80;99.90
7317;DHT22;3699;51.462;6.696;2023-08-08T05:16:34;14.90;99.90
7317;DHT22;3699;51.462;6.696;2023-08-08T05:19:01;14.90;99.90
7317;DHT22;3699;51.462;6.696;2023-08-08T05:21:39;14.90;99.90
7317;DHT22;3699;51.462;6.696;2023-08-08T05:24:06;15.00;99.90
7317;DHT22;3699;51.462;6.696;2023-08-08T05:26:34;15.00;99.90
7317;DHT22;3699;51.462;6.696;2023-08-08T05:29:01;15.00;99.90
7317;DHT22;3699;51.462;6.696;2023-08-08T05:31:27;15.10;99.90
7317;DHT22;3699;51.462;6.696;2023-08-08T05:33:54;15.10;99.90
7317;DHT22;3699;51.462;6.696;2023-08-08T05:36:21;15.10;99.90
7317;DHT22;3699;51.462;6.696;2023-08-08T05:38:48;15.20;99.90
7317;DHT22;3699;51.462;6.696;2023-08-08T05:41:15;15.40;99.90
7317;DHT22;3699;51.462;6.696;2023-08-08T05:43:43;15.30;99.90
7317;DHT22;3699;51.462;6.696;2023-08-08T05:46:10;15.30;99.90
7317;DHT22;3699;51.462;6.696;2023-08-08T05:48:36;15.30;99.90
7317;DHT22;3699;51.462;6.696;2023-08-08T05:51:03;15.40;99.90
7317;DHT22;3699;51.462;6.696;2023-08-08T05:53:30;15.50;99.90
7317;DHT22;3699;51.462;6.696;2023-08-08T05:55:57;15.50;99.90
7317;DHT22;3699;51.462;6.696;2023-08-08T05:58:24;15.50;99.90
7317;DHT22;3699;51.462;6.696;2023-08-08T06:00:52;15.60;99.90
7317;DHT22;3699;51.462;6.696;2023-08-08T06:03:19;15.60;99.90
7317;DHT22;3699;51.462;6.696;2023-08-08T06:05:46;15.60;99.90
7317;DHT22;3699;51.462;6.696;2023-08-08T06:08:13;15.60;99.90
7317;DHT22;3699;51.462;6.696;2023-08-08T06:10:42;15.60;99.90
7317;DHT22;3699;51.462;6.696;2023-08-08T06:13:08;15.70;99.90
7317;DHT22;3699;51.462;6.696;2023-08-08T06:15:35;15.80;99.90
7317;DHT22;3699;51.462;6.696;2023-08-08T06:18:04;15.90;99.90
7317;DHT22;3699;51.462;6.696;2023-08-08T06:20:31;16.00;99.90
7317;DHT22;3699;51.462;6.696;2023-08-08T06:22:58;16.00;99.90
7317;DHT22;3699;51.462;6.696;2023-08-08T06:25:24;16.10;99.90
7317;DHT22;3699;51.462;6.696;2023-08-08T06:27:51;16.20;99.90
7317;DHT22;3699;51.462;6.696;2023-08-08T06:30:18;16.30;99.90
7317;DHT22;3699;51.462;6.696;2023-08-08T06:32:45;16.40;99.90
7317;DHT22;3699;51.462;6.696;2023-08-08T06:35:13;16.70;99.90
7317;DHT22;3699;51.462;6.696;2023-08-08T06:37:42;17.00;99.90
7317;DHT22;3699;51.462;6.696;2023-08-08T06:40:10;17.20;99.90
7317;DHT22;3699;51.462;6.696;2023-08-08T06:42:38;17.30;99.90
7317;DHT22;3699;51.462;6.696;2023-08-08T06:45:05;17.30;99.90
7317;DHT22;3699;51.462;6.696;2023-08-08T06:47:32;17.60;99.90
7317;DHT22;3699;51.462;6.696;2023-08-08T06:49:59;18.10;99.90
7317;DHT22;3699;51.462;6.696;2023-08-08T06:52:27;18.40;99.90
7317;DHT22;3699;51.462;6.696;2023-08-08T06:54:54;18.60;99.90
7317;DHT22;3699;51.462;6.696;2023-08-08T06:57:21;18.90;99.90
7317;DHT22;3699;51.462;6.696;2023-08-08T06:59:47;19.10;99.90
7317;DHT22;3699;51.462;6.696;2023-08-08T07:02:16;19.30;99.90
7317;DHT22;3699;51.462;6.696;2023-08-08T07:04:43;19.80;99.90
7317;DHT22;3699;51.462;6.696;2023-08-08T07:07:10;20.40;99.90
7317;DHT22;3699;51.462;6.696;2023-08-08T07:09:38;20.80;99.90
7317;DHT22;3699;51.462;6.696;2023-08-08T07:12:11;21.30;99.90
7317;DHT22;3699;51.462;6.696;2023-08-08T07:14:37;21.70;99.90
7317;DHT22;3699;51.462;6.696;2023-08-08T07:17:13;22.10;99.90
7317;DHT22;3699;51.462;6.696;2023-08-08T07:19:41;22.40;99.90
7317;DHT22;3699;51.462;6.696;2023-08-08T07:22:09;22.70;99.90
7317;DHT22;3699;51.462;6.696;2023-08-08T07:24:35;22.80;99.90
7317;DHT22;3699;51.462;6.696;2023-08-08T07:27:18;22.80;99.90
7317;DHT22;3699;51.462;6.696;2023-08-08T07:29:45;22.70;99.90
7317;DHT22;3699;51.462;6.696;2023-08-08T07:32:15;22.30;99.90
7317;DHT22;3699;51.462;6.696;2023-08-08T07:34:42;22.00;99.90
7317;DHT22;3699;51.462;6.696;2023-08-08T07:37:08;21.70;99.90
7317;DHT22;3699;51.462;6.696;2023-08-08T07:39:36;21.50;99.90
7317;DHT22;3699;51.462;6.696;2023-08-08T07:42:09;21.40;99.90
7317;DHT22;3699;51.462;6.696;2023-08-08T07:44:47;21.50;99.90
7317;DHT22;3699;51.462;6.696;2023-08-08T07:47:14;21.70;99.90
7317;DHT22;3699;51.462;6.696;2023-08-08T07:49:40;21.90;99.90
7317;DHT22;3699;51.462;6.696;2023-08-08T07:52:07;22.20;99.90
7317;DHT22;3699;51.462;6.696;2023-08-08T07:54:34;22.20;99.90
7317;DHT22;3699;51.462;6.696;2023-08-08T07:57:02;21.90;99.90
7317;DHT22;3699;51.462;6.696;2023-08-08T07:59:29;22.00;99.90
7317;DHT22;3699;51.462;6.696;2023-08-08T08:01:57;22.00;99.90
7317;DHT22;3699;51.462;6.696;2023-08-08T08:04:24;22.00;99.90
7317;DHT22;3699;51.462;6.696;2023-08-08T08:06:51;22.10;99.90
7317;DHT22;3699;51.462;6.696;2023-08-08T08:09:17;22.30;99.90
7317;DHT22;3699;51.462;6.696;2023-08-08T08:11:44;22.40;99.90
7317;DHT22;3699;51.462;6.696;2023-08-08T08:14:11;22.40;99.90
7317;DHT22;3699;51.462;6.696;2023-08-08T08:16:38;22.30;99.90
7317;DHT22;3699;51.462;6.696;2023-08-08T08:19:06;22.20;99.90
7317;DHT22;3699;51.462;6.696;2023-08-08T08:21:33;22.30;99.90
7317;DHT22;3699;51.462;6.696;2023-08-08T08:24:00;22.40;99.90
7317;DHT22;3699;51.462;6.696;2023-08-08T08:26:26;22.70;99.90
7317;DHT22;3699;51.462;6.696;2023-08-08T08:28:53;22.80;99.90
7317;DHT22;3699;51.462;6.696;2023-08-08T08:31:20;22.80;99.90
7317;DHT22;3699;51.462;6.696;2023-08-08T08:33:47;23.10;99.90
7317;DHT22;3699;51.462;6.696;2023-08-08T08:36:15;23.30;99.90
7317;DHT22;3699;51.462;6.696;2023-08-08T08:38:41;23.40;99.90
7317;DHT22;3699;51.462;6.696;2023-08-08T08:41:09;23.50;99.90
7317;DHT22;3699;51.462;6.696;2023-08-08T08:43:38;23.70;99.90
7317;DHT22;3699;51.462;6.696;2023-08-08T08:46:05;23.90;99.90
7317;DHT22;3699;51.462;6.696;2023-08-08T08:48:32;24.30;99.90
7317;DHT22;3699;51.462;6.696;2023-08-08T08:50:59;24.30;99.90
7317;DHT22;3699;51.462;6.696;2023-08-08T08:53:27;24.20;98.50
7317;DHT22;3699;51.462;6.696;2023-08-08T08:55:54;24.20;95.40
7317;DHT22;3699;51.462;6.696;2023-08-08T08:58:24;24.10;99.90
7317;DHT22;3699;51.462;6.696;2023-08-08T09:00:51;23.90;99.90
7317;DHT22;3699;51.462;6.696;2023-08-08T09:03:18;23.80;99.90
7317;DHT22;3699;51.462;6.696;2023-08-08T09:05:47;23.60;99.90
7317;DHT22;3699;51.462;6.696;2023-08-08T09:08:14;23.50;99.90
7317;DHT22;3699;51.462;6.696;2023-08-08T09:10:43;23.40;99.90
7317;DHT22;3699;51.462;6.696;2023-08-08T09:13:10;23.30;99.90
7317;DHT22;3699;51.462;6.696;2023-08-08T09:15:37;23.20;99.90
7317;DHT22;3699;51.462;6.696;2023-08-08T09:18:06;23.30;99.90
7317;DHT22;3699;51.462;6.696;2023-08-08T09:20:33;23.30;99.90
7317;DHT22;3699;51.462;6.696;2023-08-08T09:23:00;23.50;99.90
7317;DHT22;3699;51.462;6.696;2023-08-08T09:25:27;23.30;99.90
7317;DHT22;3699;51.462;6.696;2023-08-08T09:27:55;23.00;99.90
7317;DHT22;3699;51.462;6.696;2023-08-08T09:30:22;22.80;99.90
7317;DHT22;3699;51.462;6.696;2023-08-08T09:32:49;22.40;99.90
7317;DHT22;3699;51.462;6.696;2023-08-08T09:35:16;22.10;99.90
7317;DHT22;3699;51.462;6.696;2023-08-08T09:37:44;22.00;99.90
7317;DHT22;3699;51.462;6.696;2023-08-08T09:40:11;21.90;99.90
7317;DHT22;3699;51.462;6.696;2023-08-08T09:42:40;22.00;99.90
7317;DHT22;3699;51.462;6.696;2023-08-08T09:45:09;22.20;99.90
7317;DHT22;3699;51.462;6.696;2023-08-08T09:47:37;22.40;99.90
7317;DHT22;3699;51.462;6.696;2023-08-08T09:50:05;22.70;99.90
7317;DHT22;3699;51.462;6.696;2023-08-08T09:52:37;22.70;99.90
7317;DHT22;3699;51.462;6.696;2023-08-08T09:55:05;22.80;99.90
7317;DHT22;3699;51.462;6.696;2023-08-08T09:57:33;22.90;99.90
7317;DHT22;3699;51.462;6.696;2023-08-08T10:00:01;22.80;99.90
7317;DHT22;3699;51.462;6.696;2023-08-08T10:02:31;22.60;99.90
7317;DHT22;3699;51.462;6.696;2023-08-08T10:04:59;22.40;99.90
7317;DHT22;3699;51.462;6.696;2023-08-08T10:07:26;22.40;99.90
7317;DHT22;3699;51.462;6.696;2023-08-08T10:09:53;22.40;99.90
7317;DHT22;3699;51.462;6.696;2023-08-08T10:12:26;22.30;99.90
7317;DHT22;3699;51.462;6.696;2023-08-08T10:14:54;22.40;99.90
7317;DHT22;3699;51.462;6.696;2023-08-08T10:17:21;22.30;99.90
7317;DHT22;3699;51.462;6.696;2023-08-08T10:19:54;22.10;99.90
7317;DHT22;3699;51.462;6.696;2023-08-08T10:22:22;22.00;99.90
7317;DHT22;3699;51.462;6.696;2023-08-08T10:24:51;21.90;99.90
7317;DHT22;3699;51.462;6.696;2023-08-08T10:27:27;21.90;99.90
7317;DHT22;3699;51.462;6.696;2023-08-08T10:30:01;21.90;99.90
7317;DHT22;3699;51.462;6.696;2023-08-08T10:35:54;22.00;99.90
7317;DHT22;3699;51.462;6.696;2023-08-08T10:38:24;22.10;99.90
7317;DHT22;3699;51.462;6.696;2023-08-08T10:40:56;22.30;98.80
7317;DHT22;3699;51.462;6.696;2023-08-08T10:43:25;22.60;99.90
7317;DHT22;3699;51.462;6.696;2023-08-08T10:45:56;22.80;95.60
7317;DHT22;3699;51.462;6.696;2023-08-08T10:51:23;22.50;89.20
7317;DHT22;3699;51.462;6.696;2023-08-08T10:53:51;22.30;91.60
7317;DHT22;3699;51.462;6.696;2023-08-08T10:56:19;22.10;97.30
7317;DHT22;3699;51.462;6.696;2023-08-08T10:58:48;21.90;96.40
7317;DHT22;3699;51.462;6.696;2023-08-08T11:01:16;21.60;99.90
7317;DHT22;3699;51.462;6.696;2023-08-08T11:03:44;21.50;99.90
7317;DHT22;3699;51.462;6.696;2023-08-08T11:06:11;21.40;99.90
7317;DHT22;3699;51.462;6.696;2023-08-08T11:08:39;21.20;99.90
7317;DHT22;3699;51.462;6.696;2023-08-08T11:11:06;21.10;99.90
7317;DHT22;3699;51.462;6.696;2023-08-08T11:13:33;21.20;99.90
7317;DHT22;3699;51.462;6.696;2023-08-08T11:16:00;21.40;99.90
7317;DHT22;3699;51.462;6.696;2023-08-08T11:18:28;21.50;99.90
7317;DHT22;3699;51.462;6.696;2023-08-08T11:20:54;21.80;99.90
7317;DHT22;3699;51.462;6.696;2023-08-08T11:23:21;22.20;99.90
7317;DHT22;3699;51.462;6.696;2023-08-08T11:25:50;22.40;97.80
7317;DHT22;3699;51.462;6.696;2023-08-08T11:28:16;22.40;94.20
7317;DHT22;3699;51.462;6.696;2023-08-08T11:30:45;22.60;90.70
7317;DHT22;3699;51.462;6.696;2023-08-08T11:33:13;22.70;74.10
7317;DHT22;3699;51.462;6.696;2023-08-08T11:35:43;22.70;82.80
7317;DHT22;3699;51.462;6.696;2023-08-08T11:38:12;22.60;78.90
7317;DHT22;3699;51.462;6.696;2023-08-08T11:40:40;22.50;76.10
7317;DHT22;3699;51.462;6.696;2023-08-08T11:43:08;22.50;77.40
7317;DHT22;3699;51.462;6.696;2023-08-08T11:45:37;22.30;90.20
7317;DHT22;3699;51.462;6.696;2023-08-08T11:48:04;22.40;93.50
7317;DHT22;3699;51.462;6.696;2023-08-08T11:50:31;22.40;95.50
7317;DHT22;3699;51.462;6.696;2023-08-08T11:52:59;22.30;92.60
7317;DHT22;3699;51.462;6.696;2023-08-08T11:55:30;22.30;90.90
7317;DHT22;3699;51.462;6.696;2023-08-08T11:57:57;22.20;90.90
7317;DHT22;3699;51.462;6.696;2023-08-08T12:00:28;22.00;93.00
7317;DHT22;3699;51.462;6.696;2023-08-08T12:02:57;21.90;96.00
7317;DHT22;3699;51.462;6.696;2023-08-08T12:05:24;21.70;98.30
7317;DHT22;3699;51.462;6.696;2023-08-08T12:07:51;21.60;95.10
7317;DHT22;3699;51.462;6.696;2023-08-08T12:10:20;21.60;99.90
7317;DHT22;3699;51.462;6.696;2023-08-08T12:12:53;21.70;99.90
7317;DHT22;3699;51.462;6.696;2023-08-08T12:15:20;21.80;99.90
7317;DHT22;3699;51.462;6.696;2023-08-08T12:17:49;21.90;99.90
7317;DHT22;3699;51.462;6.696;2023-08-08T12:20:16;21.80;99.40
7317;DHT22;3699;51.462;6.696;2023-08-08T12:22:43;22.10;98.70
7317;DHT22;3699;51.462;6.696;2023-08-08T12:25:09;22.20;97.90
7317;DHT22;3699;51.462;6.696;2023-08-08T12:27:37;22.30;93.50
7317;DHT22;3699;51.462;6.696;2023-08-08T12:30:05;22.10;93.50
7317;DHT22;3699;51.462;6.696;2023-08-08T12:32:33;21.90;95.50
7317;DHT22;3699;51.462;6.696;2023-08-08T12:35:01;21.80;97.90
7317;DHT22;3699;51.462;6.696;2023-08-08T12:37:32;21.50;99.90
7317;DHT22;3699;51.462;6.696;2023-08-08T12:39:59;21.40;99.90
7317;DHT22;3699;51.462;6.696;2023-08-08T12:42:28;21.30;99.90
7317;DHT22;3699;51.462;6.696;2023-08-08T12:44:54;21.10;99.90
7317;DHT22;3699;51.462;6.696;2023-08-08T12:47:21;21.00;99.90
7317;DHT22;3699;51.462;6.696;2023-08-08T12:49:48;20.80;99.90
7317;DHT22;3699;51.462;6.696;2023-08-08T12:52:25;20.70;99.90
7317;DHT22;3699;51.462;6.696;2023-08-08T12:54:52;20.80;99.90
7317;DHT22;3699;51.462;6.696;2023-08-08T12:57:19;20.80;99.90
7317;DHT22;3699;51.462;6.696;2023-08-08T12:59:45;20.90;99.90
7317;DHT22;3699;51.462;6.696;2023-08-08T13:02:12;21.10;99.90
7317;DHT22;3699;51.462;6.696;2023-08-08T13:04:39;21.40;99.90
7317;DHT22;3699;51.462;6.696;2023-08-08T13:07:06;21.80;92.30
7317;DHT22;3699;51.462;6.696;2023-08-08T13:09:34;22.00;91.50
7317;DHT22;3699;51.462;6.696;2023-08-08T13:12:01;22.30;96.50
7317;DHT22;3699;51.462;6.696;2023-08-08T13:14:28;22.80;95.70
7317;DHT22;3699;51.462;6.696;2023-08-08T13:16:55;23.20;77.10
7317;DHT22;3699;51.462;6.696;2023-08-08T13:19:21;23.20;76.50
7317;DHT22;3699;51.462;6.696;2023-08-08T13:21:53;23.10;74.50
7317;DHT22;3699;51.462;6.696;2023-08-08T13:24:20;22.90;81.00
7317;DHT22;3699;51.462;6.696;2023-08-08T13:26:49;22.70;79.70
7317;DHT22;3699;51.462;6.696;2023-08-08T13:29:16;22.60;87.40
7317;DHT22;3699;51.462;6.696;2023-08-08T13:31:43;22.80;77.30
7317;DHT22;3699;51.462;6.696;2023-08-08T13:34:10;22.90;69.80
7317;DHT22;3699;51.462;6.696;2023-08-08T13:36:37;22.90;57.80
7317;DHT22;3699;51.462;6.696;2023-08-08T13:39:03;22.70;62.70
7317;DHT22;3699;51.462;6.696;2023-08-08T13:41:30;22.60;62.00
7317;DHT22;3699;51.462;6.696;2023-08-08T13:43:58;22.40;68.30
7317;DHT22;3699;51.462;6.696;2023-08-08T13:46:25;22.40;73.10
7317;DHT22;3699;51.462;6.696;2023-08-08T13:48:52;22.30;74.40
7317;DHT22;3699;51.462;6.696;2023-08-08T13:51:19;22.30;86.30
7317;DHT22;3699;51.462;6.696;2023-08-08T13:53:46;22.40;89.40
7317;DHT22;3699;51.462;6.696;2023-08-08T13:56:14;22.60;67.90
7317;DHT22;3699;51.462;6.696;2023-08-08T13:58:41;22.60;78.70
7317;DHT22;3699;51.462;6.696;2023-08-08T14:01:09;22.80;65.70
7317;DHT22;3699;51.462;6.696;2023-08-08T14:03:36;22.70;76.40
7317;DHT22;3699;51.462;6.696;2023-08-08T14:06:03;22.60;67.50
7317;DHT22;3699;51.462;6.696;2023-08-08T14:08:29;22.40;60.10
7317;DHT22;3699;51.462;6.696;2023-08-08T14:10:57;22.20;71.20
7317;DHT22;3699;51.462;6.696;2023-08-08T14:13:24;22.20;78.80
7317;DHT22;3699;51.462;6.696;2023-08-08T14:15:51;22.00;71.60
7317;DHT22;3699;51.462;6.696;2023-08-08T14:18:19;22.00;85.80
7317;DHT22;3699;51.462;6.696;2023-08-08T14:20:46;22.00;76.90
7317;DHT22;3699;51.462;6.696;2023-08-08T14:23:13;22.10;88.50
7317;DHT22;3699;51.462;6.696;2023-08-08T14:25:40;22.20;66.90
7317;DHT22;3699;51.462;6.696;2023-08-08T14:28:07;22.30;66.80
7317;DHT22;3699;51.462;6.696;2023-08-08T14:30:34;22.50;71.30
7317;DHT22;3699;51.462;6.696;2023-08-08T14:33:01;22.60;62.20
7317;DHT22;3699;51.462;6.696;2023-08-08T14:35:29;22.50;58.30
7317;DHT22;3699;51.462;6.696;2023-08-08T14:38:02;22.60;57.40
7317;DHT22;3699;51.462;6.696;2023-08-08T14:40:29;22.70;55.00
7317;DHT22;3699;51.462;6.696;2023-08-08T14:42:57;22.70;49.10
7317;DHT22;3699;51.462;6.696;2023-08-08T14:45:24;22.80;55.50
7317;DHT22;3699;51.462;6.696;2023-08-08T14:47:51;22.80;48.90
7317;DHT22;3699;51.462;6.696;2023-08-08T14:50:17;22.80;46.90
7317;DHT22;3699;51.462;6.696;2023-08-08T14:52:47;22.70;42.20
7317;DHT22;3699;51.462;6.696;2023-08-08T14:55:13;22.70;42.80
7317;DHT22;3699;51.462;6.696;2023-08-08T14:57:40;22.60;46.10
7317;DHT22;3699;51.462;6.696;2023-08-08T15:00:08;22.50;47.50
7317;DHT22;3699;51.462;6.696;2023-08-08T15:02:38;22.60;48.50
7317;DHT22;3699;51.462;6.696;2023-08-08T15:05:05;22.70;45.60
7317;DHT22;3699;51.462;6.696;2023-08-08T15:07:32;22.70;45.30
7317;DHT22;3699;51.462;6.696;2023-08-08T15:10:00;22.70;46.00
7317;DHT22;3699;51.462;6.696;2023-08-08T15:12:26;22.70;46.10
7317;DHT22;3699;51.462;6.696;2023-08-08T15:14:53;22.60;41.90
7317;DHT22;3699;51.462;6.696;2023-08-08T15:17:20;22.60;48.10
7317;DHT22;3699;51.462;6.696;2023-08-08T15:19:47;22.70;49.10
7317;DHT22;3699;51.462;6.696;2023-08-08T15:22:14;22.70;48.50
7317;DHT22;3699;51.462;6.696;2023-08-08T15:24:43;22.80;47.70
7317;DHT22;3699;51.462;6.696;2023-08-08T15:27:11;22.70;41.40
7317;DHT22;3699;51.462;6.696;2023-08-08T15:29:38;22.70;44.60
7317;DHT22;3699;51.462;6.696;2023-08-08T15:32:05;22.60;43.30
7317;DHT22;3699;51.462;6.696;2023-08-08T15:34:32;22.70;42.90
7317;DHT22;3699;51.462;6.696;2023-08-08T15:36:59;22.70;42.30
7317;DHT22;3699;51.462;6.696;2023-08-08T15:39:27;22.70;39.30
7317;DHT22;3699;51.462;6.696;2023-08-08T15:41:53;22.70;39.40
7317;DHT22;3699;51.462;6.696;2023-08-08T15:44:22;22.70;40.70
7317;DHT22;3699;51.462;6.696;2023-08-08T15:46:48;22.60;40.10
7317;DHT22;3699;51.462;6.696;2023-08-08T15:49:15;22.50;41.40
7317;DHT22;3699;51.462;6.696;2023-08-08T15:51:42;22.60;41.10
7317;DHT22;3699;51.462;6.696;2023-08-08T15:54:09;22.40;40.50
7317;DHT22;3699;51.462;6.696;2023-08-08T15:56:35;22.40;40.50
7317;DHT22;3699;51.462;6.696;2023-08-08T15:59:04;22.30;42.50
7317;DHT22;3699;51.462;6.696;2023-08-08T16:01:32;22.20;44.80
7317;DHT22;3699;51.462;6.696;2023-08-08T16:03:59;22.20;45.60
7317;DHT22;3699;51.462;6.696;2023-08-08T16:06:25;22.10;47.00
7317;DHT22;3699;51.462;6.696;2023-08-08T16:08:52;22.00;45.20
7317;DHT22;3699;51.462;6.696;2023-08-08T16:11:19;21.90;43.30